Time,TemperatureF,DewpointF,PressureIn,WindDirection,WindDirectionDegrees,WindSpeedMPH,WindSpeedGustMPH,Humidity,HourlyPrecipIn,Conditions,Clouds,dailyrainin,SoftwareType,DateUTC
2013-02-07 00:02:00,40.3,32.7,30.19,SW,225,0.0,0.0,74,0.00,,,0.00,meteohub,2013-02-07 08:02:00,
2013-02-07 00:07:00,40.3,32.4,30.19,SW,225,0.0,0.0,73,0.00,,,0.00,meteohub,2013-02-07 08:07:00,
2013-02-07 00:12:00,40.3,32.4,30.19,SW,225,0.0,0.0,73,0.00,,,0.00,meteohub,2013-02-07 08:12:00,
2013-02-07 00:17:00,40.1,32.5,30.19,SW,225,0.0,0.0,74,0.00,,,0.00,meteohub,2013-02-07 08:17:00,
2013-02-07 00:22:00,39.9,32.4,30.19,SW,225,0.0,0.0,74,0.00,,,0.00,meteohub,2013-02-07 08:22:00,
2013-02-07 00:27:00,39.9,32.4,30.19,SW,225,0.0,0.0,74,0.00,,,0.00,meteohub,2013-02-07 08:27:00,
2013-02-07 00:32:00,39.9,32.4,30.16,SW,225,0.0,0.0,74,0.00,,,0.00,meteohub,2013-02-07 08:32:00,
2013-02-07 00:37:00,39.7,32.2,30.16,SW,225,0.0,0.0,74,0.00,,,0.00,meteohub,2013-02-07 08:37:00,
2013-02-07 00:42:00,39.7,32.2,30.16,SW,225,0.0,0.0,74,0.00,,,0.00,meteohub,2013-02-07 08:42:00,
2013-02-07 00:47:00,39.6,32.0,30.19,SW,225,0.0,0.0,74,0.00,,,0.00,meteohub,2013-02-07 08:47:00,
2013-02-07 00:52:00,39.6,32.0,30.19,SW,225,0.0,0.0,74,0.00,,,0.00,meteohub,2013-02-07 08:52:00,
2013-02-07 00:57:00,39.4,31.8,30.19,SW,225,0.0,0.0,74,0.00,,,0.00,meteohub,2013-02-07 08:57:00,
2013-02-07 01:02:00,39.2,31.6,30.16,SW,225,0.0,0.0,74,0.00,,,0.00,meteohub,2013-02-07 09:02:00,
2013-02-07 01:07:00,39.2,31.6,30.16,SW,225,0.0,0.0,74,0.00,,,0.00,meteohub,2013-02-07 09:07:00,
2013-02-07 01:12:00,39.0,31.5,30.16,SW,225,0.0,0.0,74,0.00,,,0.00,meteohub,2013-02-07 09:12:00,
2013-02-07 01:17:00,39.0,31.8,30.13,SW,225,0.0,0.0,75,0.00,,,0.00,meteohub,2013-02-07 09:17:00,
2013-02-07 01:22:00,38.8,31.6,30.13,SW,225,0.0,0.0,75,0.00,,,0.00,meteohub,2013-02-07 09:22:00,
2013-02-07 01:27:00,38.8,31.6,30.13,SW,225,0.0,0.0,75,0.00,,,0.00,meteohub,2013-02-07 09:27:00,
2013-02-07 01:32:00,38.8,31.6,30.16,SW,225,0.0,0.0,75,0.00,,,0.00,meteohub,2013-02-07 09:32:00,
2013-02-07 01:37:00,38.7,31.5,30.16,SW,225,0.0,0.0,75,0.00,,,0.00,meteohub,2013-02-07 09:37:00,
2013-02-07 01:42:00,38.7,31.5,30.16,SW,225,0.0,0.0,75,0.00,,,0.00,meteohub,2013-02-07 09:42:00,
2013-02-07 01:47:00,38.5,31.3,30.16,SW,225,0.0,0.0,75,0.00,,,0.00,meteohub,2013-02-07 09:47:00,
2013-02-07 01:52:00,38.5,31.3,30.16,SW,225,0.0,0.0,75,0.00,,,0.00,meteohub,2013-02-07 09:52:00,
2013-02-07 01:57:00,38.3,31.1,30.16,SW,225,0.0,0.0,75,0.00,,,0.00,meteohub,2013-02-07 09:57:00,
2013-02-07 02:02:00,38.1,30.9,30.16,SW,225,0.0,0.0,75,0.00,,,0.00,meteohub,2013-02-07 10:02:00,
2013-02-07 02:07:00,38.1,30.9,30.16,SW,225,0.0,0.0,75,0.00,,,0.00,meteohub,2013-02-07 10:07:00,
2013-02-07 02:12:00,37.9,30.7,30.16,SW,225,0.0,0.0,75,0.00,,,0.00,meteohub,2013-02-07 10:12:00,
2013-02-07 02:17:00,37.9,30.7,30.16,SW,225,0.0,0.0,75,0.00,,,0.00,meteohub,2013-02-07 10:17:00,
2013-02-07 02:22:00,37.9,30.7,30.16,SW,225,0.0,0.0,75,0.00,,,0.00,meteohub,2013-02-07 10:22:00,
2013-02-07 02:27:00,37.8,30.6,30.16,SW,225,0.0,0.0,75,0.00,,,0.00,meteohub,2013-02-07 10:27:00,
2013-02-07 02:32:00,37.8,30.9,30.13,SW,225,0.0,0.0,76,0.00,,,0.00,meteohub,2013-02-07 10:32:00,
2013-02-07 02:37:00,37.6,30.7,30.13,SW,225,0.0,0.0,76,0.00,,,0.00,meteohub,2013-02-07 10:37:00,
2013-02-07 02:42:00,37.6,30.4,30.13,SW,225,0.0,0.0,75,0.00,,,0.00,meteohub,2013-02-07 10:42:00,
2013-02-07 02:47:00,37.4,30.6,30.13,SW,225,0.0,0.0,76,0.00,,,0.00,meteohub,2013-02-07 10:47:00,
2013-02-07 02:52:00,37.4,30.6,30.13,SW,225,0.0,0.0,76,0.00,,,0.00,meteohub,2013-02-07 10:52:00,
2013-02-07 02:57:00,37.4,30.6,30.13,SW,225,0.0,0.0,76,0.00,,,0.00,meteohub,2013-02-07 10:57:00,
2013-02-07 03:02:00,37.2,30.4,30.16,SW,225,0.0,0.0,76,0.00,,,0.00,meteohub,2013-02-07 11:02:00,
2013-02-07 03:07:00,37.2,30.4,30.16,SW,225,0.0,0.0,76,0.00,,,0.00,meteohub,2013-02-07 11:07:00,
2013-02-07 03:12:00,37.2,30.4,30.16,SW,225,0.0,0.0,76,0.00,,,0.00,meteohub,2013-02-07 11:12:00,
2013-02-07 03:17:00,37.2,30.7,30.13,SW,225,0.0,0.0,77,0.00,,,0.00,meteohub,2013-02-07 11:17:00,
2013-02-07 03:22:00,37.4,30.9,30.13,SW,225,0.0,0.0,77,0.00,,,0.00,meteohub,2013-02-07 11:22:00,
2013-02-07 03:27:00,37.4,30.9,30.13,SW,225,0.0,0.0,77,0.00,,,0.00,meteohub,2013-02-07 11:27:00,
2013-02-07 03:32:00,37.6,31.1,30.16,SW,225,0.0,0.0,77,0.00,,,0.00,meteohub,2013-02-07 11:32:00,
2013-02-07 03:37:00,37.8,31.3,30.16,SW,225,0.0,0.0,77,0.00,,,0.00,meteohub,2013-02-07 11:37:00,
2013-02-07 03:42:00,37.9,31.6,30.16,SW,225,0.0,0.0,78,0.00,,,0.00,meteohub,2013-02-07 11:42:00,
2013-02-07 03:47:00,37.9,31.6,30.16,SW,225,0.0,0.0,78,0.00,,,0.00,meteohub,2013-02-07 11:47:00,
2013-02-07 03:52:00,38.1,31.8,30.16,SW,225,0.0,1.0,78,0.00,,,0.00,meteohub,2013-02-07 11:52:00,
2013-02-07 03:57:00,38.1,31.8,30.16,West,270,0.0,1.0,78,0.00,,,0.00,meteohub,2013-02-07 11:57:00,
2013-02-07 04:03:00,38.3,32.0,30.16,West,270,0.0,1.0,78,0.00,,,0.00,meteohub,2013-02-07 12:03:00,
2013-02-07 04:08:00,38.3,32.0,30.16,West,270,0.0,0.0,78,0.00,,,0.00,meteohub,2013-02-07 12:08:00,
2013-02-07 04:14:00,38.3,32.0,30.16,West,270,0.0,0.0,78,0.00,,,0.00,meteohub,2013-02-07 12:14:00,
2013-02-07 04:19:00,38.3,32.0,30.16,West,270,0.0,0.0,78,0.00,,,0.00,meteohub,2013-02-07 12:19:00,
2013-02-07 04:24:00,38.3,32.0,30.16,West,270,0.0,0.0,78,0.00,,,0.00,meteohub,2013-02-07 12:24:00,
2013-02-07 04:30:00,38.3,32.0,30.16,West,270,0.0,0.0,78,0.00,,,0.00,meteohub,2013-02-07 12:30:00,
2013-02-07 04:35:00,38.5,32.2,30.16,West,270,0.0,0.0,78,0.00,,,0.00,meteohub,2013-02-07 12:35:00,
2013-02-07 04:40:00,38.5,32.2,30.16,West,270,0.0,0.0,78,0.00,,,0.00,meteohub,2013-02-07 12:40:00,
2013-02-07 04:46:00,38.5,32.2,30.13,West,270,0.0,0.0,78,0.00,,,0.00,meteohub,2013-02-07 12:46:00,
2013-02-07 04:51:00,38.5,32.2,30.13,West,270,0.0,0.0,78,0.00,,,0.00,meteohub,2013-02-07 12:51:00,
2013-02-07 04:57:00,38.5,32.2,30.13,West,270,0.0,0.0,78,0.00,,,0.00,meteohub,2013-02-07 12:57:00,
2013-02-07 05:02:00,38.5,32.2,30.13,West,270,0.0,0.0,78,0.00,,,0.00,meteohub,2013-02-07 13:02:00,
2013-02-07 05:07:00,38.3,32.0,30.13,West,270,0.0,0.0,78,0.00,,,0.00,meteohub,2013-02-07 13:07:00,
2013-02-07 05:12:00,38.1,31.8,30.13,West,270,0.0,0.0,78,0.00,,,0.00,meteohub,2013-02-07 13:12:00,
2013-02-07 05:18:00,38.1,31.8,30.13,West,270,0.0,0.0,78,0.00,,,0.00,meteohub,2013-02-07 13:18:00,
2013-02-07 05:23:00,38.1,31.8,30.13,West,270,0.0,0.0,78,0.00,,,0.00,meteohub,2013-02-07 13:23:00,
2013-02-07 05:28:00,37.9,31.6,30.13,West,270,0.0,0.0,78,0.00,,,0.00,meteohub,2013-02-07 13:28:00,
2013-02-07 05:34:00,37.9,31.6,30.13,WNW,292,0.0,0.0,78,0.00,,,0.00,meteohub,2013-02-07 13:34:00,
2013-02-07 05:39:00,37.9,31.6,30.13,WNW,292,0.0,1.0,78,0.00,,,0.00,meteohub,2013-02-07 13:39:00,
2013-02-07 05:45:00,37.9,31.6,30.13,WNW,292,0.0,1.0,78,0.00,,,0.00,meteohub,2013-02-07 13:45:00,
2013-02-07 05:50:00,37.9,31.6,30.13,WNW,292,0.0,0.0,78,0.00,,,0.00,meteohub,2013-02-07 13:50:00,
2013-02-07 05:55:00,38.1,32.2,30.13,WNW,292,0.0,0.0,79,0.00,,,0.00,meteohub,2013-02-07 13:55:00,
2013-02-07 06:01:00,38.1,32.2,30.13,WNW,292,0.0,0.0,79,0.00,,,0.00,meteohub,2013-02-07 14:01:00,
2013-02-07 06:06:00,38.1,32.2,30.13,WNW,292,0.0,0.0,79,0.00,,,0.00,meteohub,2013-02-07 14:06:00,
2013-02-07 06:11:00,38.1,32.2,30.13,WNW,292,0.0,0.0,79,0.00,,,0.00,meteohub,2013-02-07 14:11:00,
2013-02-07 06:17:00,38.1,32.2,30.13,WNW,292,0.0,0.0,79,0.00,,,0.00,meteohub,2013-02-07 14:17:00,
2013-02-07 06:22:00,37.9,32.0,30.13,WNW,292,0.0,0.0,79,0.00,,,0.00,meteohub,2013-02-07 14:22:00,
2013-02-07 06:27:00,37.9,32.0,30.13,WNW,292,0.0,0.0,79,0.00,,,0.00,meteohub,2013-02-07 14:27:00,
2013-02-07 06:32:00,37.9,32.0,30.13,WNW,292,0.0,0.0,79,0.00,,,0.00,meteohub,2013-02-07 14:32:00,
2013-02-07 06:37:00,37.9,32.0,30.13,WNW,292,0.0,0.0,79,0.00,,,0.00,meteohub,2013-02-07 14:37:00,
2013-02-07 06:42:00,37.8,31.8,30.13,WNW,292,0.0,0.0,79,0.00,,,0.00,meteohub,2013-02-07 14:42:00,
2013-02-07 06:47:00,37.8,31.8,30.10,WNW,292,0.0,0.0,79,0.00,,,0.00,meteohub,2013-02-07 14:47:00,
2013-02-07 06:52:00,37.8,31.8,30.10,WNW,292,0.0,0.0,79,0.00,,,0.00,meteohub,2013-02-07 14:52:00,
2013-02-07 06:57:00,37.6,31.6,30.10,West,270,0.0,0.0,79,0.00,,,0.00,meteohub,2013-02-07 14:57:00,
2013-02-07 07:02:00,37.6,31.6,30.10,West,270,0.0,0.0,79,0.00,,,0.00,meteohub,2013-02-07 15:02:00,
2013-02-07 07:07:00,37.6,31.6,30.10,West,270,0.0,0.0,79,0.00,,,0.00,meteohub,2013-02-07 15:07:00,
2013-02-07 07:12:00,37.6,31.6,30.10,West,270,0.0,0.0,79,0.00,,,0.00,meteohub,2013-02-07 15:12:00,
2013-02-07 07:17:00,37.6,31.6,30.10,West,270,0.0,0.0,79,0.00,,,0.00,meteohub,2013-02-07 15:17:00,
2013-02-07 07:22:00,37.6,31.6,30.10,West,270,0.0,0.0,79,0.00,,,0.00,meteohub,2013-02-07 15:22:00,
2013-02-07 07:27:00,37.6,31.6,30.10,WSW,248,0.0,0.0,79,0.00,,,0.00,meteohub,2013-02-07 15:27:00,
2013-02-07 07:32:00,37.6,32.0,30.10,WSW,248,0.0,0.0,80,0.00,,,0.00,meteohub,2013-02-07 15:32:00,
2013-02-07 07:37:00,37.9,32.4,30.10,SSW,202,0.0,0.0,80,0.00,,,0.00,meteohub,2013-02-07 15:37:00,
2013-02-07 07:42:00,38.1,32.9,30.10,SSW,202,0.0,1.0,81,0.00,,,0.00,meteohub,2013-02-07 15:42:00,
2013-02-07 07:47:00,38.5,33.4,30.10,SSE,158,1.0,1.0,82,0.00,,,0.00,meteohub,2013-02-07 15:47:00,
2013-02-07 07:52:00,39.0,34.0,30.10,SSE,158,4.0,4.0,82,0.00,,,0.00,meteohub,2013-02-07 15:52:00,
2013-02-07 07:57:00,39.4,34.3,30.10,SSE,158,3.0,4.0,82,0.00,,,0.00,meteohub,2013-02-07 15:57:00,
2013-02-07 08:03:00,40.5,35.8,30.10,SSE,158,0.0,4.0,83,0.00,,,0.00,meteohub,2013-02-07 16:03:00,
2013-02-07 08:08:00,41.0,36.0,30.10,South,180,1.0,4.0,82,0.00,,,0.00,meteohub,2013-02-07 16:08:00,
2013-02-07 08:14:00,41.7,36.7,30.10,SSE,158,1.0,4.0,82,0.00,,,0.00,meteohub,2013-02-07 16:14:00,
2013-02-07 08:19:00,42.1,37.0,30.10,SSE,158,0.0,3.0,82,0.00,,,0.00,meteohub,2013-02-07 16:19:00,
2013-02-07 08:24:00,42.4,37.4,30.10,SE,135,0.0,4.0,82,0.00,,,0.00,meteohub,2013-02-07 16:24:00,
2013-02-07 08:30:00,43.0,37.6,30.10,SSE,158,1.0,4.0,81,0.00,,,0.00,meteohub,2013-02-07 16:30:00,
2013-02-07 08:35:00,43.7,38.3,30.10,SSE,158,1.0,4.0,81,0.00,,,0.00,meteohub,2013-02-07 16:35:00,
2013-02-07 08:40:00,44.2,38.5,30.10,SSE,158,1.0,4.0,80,0.00,,,0.00,meteohub,2013-02-07 16:40:00,
2013-02-07 08:46:00,44.8,38.7,30.13,South,180,2.0,4.0,79,0.00,,,0.00,meteohub,2013-02-07 16:46:00,
2013-02-07 08:51:00,45.1,38.3,30.13,South,180,4.0,4.0,77,0.00,,,0.00,meteohub,2013-02-07 16:51:00,
2013-02-07 08:57:00,45.5,38.5,30.13,SSE,158,0.0,4.0,76,0.00,,,0.00,meteohub,2013-02-07 16:57:00,
2013-02-07 09:02:00,45.7,38.5,30.13,SSE,158,0.0,4.0,76,0.00,,,0.00,meteohub,2013-02-07 17:02:00,
2013-02-07 09:07:00,46.0,38.7,30.13,SSE,158,0.0,4.0,75,0.00,,,0.00,meteohub,2013-02-07 17:07:00,
2013-02-07 09:12:00,46.4,38.7,30.13,SSE,158,0.0,2.0,74,0.00,,,0.00,meteohub,2013-02-07 17:12:00,
2013-02-07 09:17:00,46.6,38.8,30.13,SSE,158,0.0,2.0,74,0.00,,,0.00,meteohub,2013-02-07 17:17:00,
2013-02-07 09:22:00,46.9,39.0,30.13,SSE,158,0.0,1.0,74,0.00,,,0.00,meteohub,2013-02-07 17:22:00,
2013-02-07 09:27:00,47.1,39.2,30.13,SSW,202,1.0,2.0,74,0.00,,,0.00,meteohub,2013-02-07 17:27:00,
2013-02-07 09:32:00,47.5,39.2,30.13,South,180,1.0,2.0,73,0.00,,,0.00,meteohub,2013-02-07 17:32:00,
2013-02-07 09:37:00,47.7,39.4,30.13,SSE,158,0.0,2.0,73,0.00,,,0.00,meteohub,2013-02-07 17:37:00,
2013-02-07 09:42:00,47.7,39.4,30.13,WSW,248,0.0,3.0,73,0.00,,,0.00,meteohub,2013-02-07 17:42:00,
2013-02-07 09:47:00,47.8,39.6,30.16,SW,225,0.0,3.0,73,0.00,,,0.00,meteohub,2013-02-07 17:47:00,
2013-02-07 09:52:00,47.8,39.9,30.16,SSW,202,0.0,3.0,74,0.00,,,0.00,meteohub,2013-02-07 17:52:00,
2013-02-07 09:57:00,47.8,40.3,30.16,SSE,158,0.0,1.0,75,0.00,,,0.00,meteohub,2013-02-07 17:57:00,
2013-02-07 10:02:00,47.8,40.3,30.13,SW,225,1.0,1.0,75,0.00,,,0.00,meteohub,2013-02-07 18:02:00,
2013-02-07 10:07:00,47.8,40.3,30.13,SW,225,0.0,2.0,75,0.00,,,0.00,meteohub,2013-02-07 18:07:00,
2013-02-07 10:12:00,47.8,40.6,30.13,NNW,338,4.0,4.0,76,0.00,,,0.00,meteohub,2013-02-07 18:12:00,
2013-02-07 10:17:00,47.7,40.8,30.16,ENE,68,0.0,9.0,77,0.00,,,0.00,meteohub,2013-02-07 18:17:00,
2013-02-07 10:22:00,47.8,41.7,30.16,NE,45,0.0,9.0,79,0.00,,,0.00,meteohub,2013-02-07 18:22:00,
2013-02-07 10:27:00,47.8,41.9,30.16,NE,45,0.0,9.0,80,0.00,,,0.00,meteohub,2013-02-07 18:27:00,
2013-02-07 10:32:00,48.0,42.1,30.16,SSE,158,0.0,0.0,80,0.00,,,0.00,meteohub,2013-02-07 18:32:00,
2013-02-07 10:37:00,48.4,42.4,30.16,SSE,158,0.0,0.0,80,0.00,,,0.00,meteohub,2013-02-07 18:37:00,
2013-02-07 10:42:00,48.7,42.8,30.16,SSW,202,0.0,0.0,80,0.00,,,0.00,meteohub,2013-02-07 18:42:00,
2013-02-07 10:47:00,49.1,43.5,30.16,ENE,68,0.0,0.0,81,0.00,,,0.00,meteohub,2013-02-07 18:47:00,
2013-02-07 10:52:00,49.5,43.9,30.16,SSE,158,0.0,1.0,81,0.00,,,0.00,meteohub,2013-02-07 18:52:00,
2013-02-07 10:57:00,49.8,44.2,30.16,SSE,158,0.0,1.0,81,0.00,,,0.00,meteohub,2013-02-07 18:57:00,
2013-02-07 11:02:00,50.0,44.4,30.13,SSE,158,0.0,1.0,81,0.00,,,0.00,meteohub,2013-02-07 19:02:00,
2013-02-07 11:07:00,50.2,44.6,30.13,South,180,0.0,1.0,81,0.00,,,0.00,meteohub,2013-02-07 19:07:00,
2013-02-07 11:12:00,50.4,44.8,30.13,South,180,1.0,1.0,81,0.00,,,0.00,meteohub,2013-02-07 19:12:00,
2013-02-07 11:17:00,50.7,45.1,30.16,SSW,202,0.0,1.0,81,0.00,,,0.00,meteohub,2013-02-07 19:17:00,
2013-02-07 11:22:00,51.1,45.5,30.16,SSW,202,0.0,1.0,81,0.00,,,0.00,meteohub,2013-02-07 19:22:00,
2013-02-07 11:27:00,51.4,45.5,30.16,SSW,202,0.0,1.0,80,0.00,,,0.00,meteohub,2013-02-07 19:27:00,
2013-02-07 11:32:00,51.8,45.9,30.13,NNW,338,0.0,1.0,80,0.00,,,0.00,meteohub,2013-02-07 19:32:00,
2013-02-07 11:37:00,52.5,46.6,30.13,NNW,338,2.0,2.0,80,0.00,,,0.00,meteohub,2013-02-07 19:37:00,
2013-02-07 11:42:00,53.1,46.0,30.13,ESE,112,0.0,3.0,77,0.00,,,0.00,meteohub,2013-02-07 19:42:00,
2013-02-07 11:47:00,53.4,45.3,30.13,NE,45,1.0,3.0,74,0.00,,,0.00,meteohub,2013-02-07 19:47:00,
2013-02-07 11:52:00,53.8,45.7,30.13,WNW,292,1.0,4.0,74,0.00,,,0.00,meteohub,2013-02-07 19:52:00,
2013-02-07 11:57:00,54.7,45.9,30.13,NW,315,1.0,4.0,72,0.00,,,0.00,meteohub,2013-02-07 19:57:00,
2013-02-07 12:02:00,55.2,46.0,30.10,NNW,338,2.0,4.0,71,0.00,,,0.00,meteohub,2013-02-07 20:02:00,
2013-02-07 12:07:00,55.6,44.1,30.10,NNW,338,2.0,3.0,65,0.00,,,0.00,meteohub,2013-02-07 20:07:00,
2013-02-07 12:12:00,55.4,43.0,30.10,WNW,292,0.0,5.0,63,0.00,,,0.00,meteohub,2013-02-07 20:12:00,
2013-02-07 12:17:00,55.4,43.0,30.10,NW,315,1.0,5.0,63,0.00,,,0.00,meteohub,2013-02-07 20:17:00,
2013-02-07 12:22:00,55.2,43.3,30.10,NW,315,1.0,3.0,64,0.00,,,0.00,meteohub,2013-02-07 20:22:00,
2013-02-07 12:27:00,55.2,43.3,30.10,NE,45,1.0,3.0,64,0.00,,,0.00,meteohub,2013-02-07 20:27:00,
2013-02-07 12:32:00,55.2,43.3,30.10,North,0,1.0,3.0,64,0.00,,,0.00,meteohub,2013-02-07 20:32:00,
2013-02-07 12:37:00,55.0,42.6,30.10,NNE,22,4.0,4.0,63,0.00,,,0.00,meteohub,2013-02-07 20:37:00,
2013-02-07 12:42:00,55.0,42.3,30.10,North,0,1.0,5.0,62,0.00,,,0.00,meteohub,2013-02-07 20:42:00,
2013-02-07 12:47:00,55.0,42.6,30.10,North,0,3.0,5.0,63,0.00,,,0.00,meteohub,2013-02-07 20:47:00,
2013-02-07 12:52:00,55.2,42.4,30.10,West,270,1.0,5.0,62,0.00,,,0.00,meteohub,2013-02-07 20:52:00,
2013-02-07 12:57:00,55.6,43.2,30.10,NNW,338,1.0,4.0,63,0.00,,,0.00,meteohub,2013-02-07 20:57:00,
2013-02-07 13:02:00,55.4,42.6,30.10,North,0,4.0,6.0,62,0.00,,,0.00,meteohub,2013-02-07 21:02:00,
2013-02-07 13:07:00,55.2,42.1,30.10,North,0,3.0,6.0,61,0.00,,,0.00,meteohub,2013-02-07 21:07:00,
2013-02-07 13:12:00,55.2,42.1,30.10,NNE,22,4.0,6.0,61,0.00,,,0.00,meteohub,2013-02-07 21:12:00,
2013-02-07 13:17:00,55.2,41.5,30.07,North,0,2.0,5.0,60,0.00,,,0.00,meteohub,2013-02-07 21:17:00,
2013-02-07 13:22:00,55.4,41.4,30.07,North,0,4.0,7.0,59,0.00,,,0.00,meteohub,2013-02-07 21:22:00,
2013-02-07 13:27:00,55.2,41.2,30.07,NNW,338,2.0,7.0,59,0.00,,,0.00,meteohub,2013-02-07 21:27:00,
2013-02-07 13:32:00,55.0,41.4,30.10,NW,315,3.0,6.0,60,0.00,,,0.00,meteohub,2013-02-07 21:32:00,
2013-02-07 13:38:00,55.4,41.7,30.10,NNE,22,1.0,6.0,60,0.00,,,0.00,meteohub,2013-02-07 21:38:00,
2013-02-07 13:43:00,55.9,41.9,30.10,WNW,292,2.0,6.0,59,0.00,,,0.00,meteohub,2013-02-07 21:43:00,
2013-02-07 13:49:00,56.5,42.8,30.10,NNE,22,1.0,6.0,60,0.00,,,0.00,meteohub,2013-02-07 21:49:00,
2013-02-07 13:54:00,57.0,37.6,30.10,NW,315,3.0,6.0,48,0.00,,,0.00,meteohub,2013-02-07 21:54:00,
2013-02-07 14:00:00,57.2,36.1,30.07,West,270,4.0,10.0,45,0.00,,,0.00,meteohub,2013-02-07 22:00:00,
2013-02-07 14:05:00,56.8,34.7,30.07,WNW,292,4.0,12.0,43,0.00,,,0.00,meteohub,2013-02-07 22:05:00,
2013-02-07 14:10:00,56.8,35.8,30.07,SSW,202,1.0,12.0,45,0.00,,,0.00,meteohub,2013-02-07 22:10:00,
2013-02-07 14:16:00,57.6,35.8,30.07,WNW,292,3.0,8.0,44,0.00,,,0.00,meteohub,2013-02-07 22:16:00,
2013-02-07 14:21:00,57.7,34.9,30.07,NW,315,5.0,7.0,42,0.00,,,0.00,meteohub,2013-02-07 22:21:00,
2013-02-07 14:27:00,57.2,33.1,30.07,West,270,6.0,8.0,40,0.00,,,0.00,meteohub,2013-02-07 22:27:00,
2013-02-07 14:32:00,56.8,32.9,30.07,NW,315,8.0,8.0,40,0.00,,,0.00,meteohub,2013-02-07 22:32:00,
2013-02-07 14:37:00,56.3,31.6,30.07,NNW,338,5.0,8.0,39,0.00,,,0.00,meteohub,2013-02-07 22:37:00,
2013-02-07 14:42:00,56.3,32.4,30.07,NW,315,6.0,10.0,40,0.00,,,0.00,meteohub,2013-02-07 22:42:00,
2013-02-07 14:47:00,56.1,30.9,30.07,South,180,3.0,10.0,38,0.00,,,0.00,meteohub,2013-02-07 22:47:00,
2013-02-07 14:52:00,56.7,32.0,30.07,SSW,202,2.0,9.0,39,0.00,,,0.00,meteohub,2013-02-07 22:52:00,
2013-02-07 14:57:00,57.0,32.9,30.07,West,270,4.0,9.0,40,0.00,,,0.00,meteohub,2013-02-07 22:57:00,
2013-02-07 15:02:00,57.0,31.6,30.10,NW,315,3.0,7.0,38,0.00,,,0.00,meteohub,2013-02-07 23:02:00,
2013-02-07 15:07:00,57.2,31.3,30.10,WNW,292,6.0,8.0,37,0.00,,,0.00,meteohub,2013-02-07 23:07:00,
2013-02-07 15:12:00,57.2,31.3,30.10,WNW,292,2.0,8.0,37,0.00,,,0.00,meteohub,2013-02-07 23:12:00,
2013-02-07 15:17:00,57.2,31.3,30.07,WSW,248,6.0,7.0,37,0.00,,,0.00,meteohub,2013-02-07 23:17:00,
2013-02-07 15:22:00,57.2,31.3,30.07,SW,225,4.0,7.0,37,0.00,,,0.00,meteohub,2013-02-07 23:22:00,
2013-02-07 15:27:00,57.0,31.6,30.07,WSW,248,2.0,7.0,38,0.00,,,0.00,meteohub,2013-02-07 23:27:00,
2013-02-07 15:32:00,56.8,31.5,30.07,South,180,3.0,7.0,38,0.00,,,0.00,meteohub,2013-02-07 23:32:00,
2013-02-07 15:37:00,56.3,30.4,30.07,NNW,338,2.0,7.0,37,0.00,,,0.00,meteohub,2013-02-07 23:37:00,
2013-02-07 15:42:00,56.3,31.1,30.07,NW,315,6.0,10.0,38,0.00,,,0.00,meteohub,2013-02-07 23:42:00,
2013-02-07 15:47:00,56.1,31.5,30.07,WNW,292,6.0,10.0,39,0.00,,,0.00,meteohub,2013-02-07 23:47:00,
2013-02-07 15:52:00,55.9,30.7,30.07,WSW,248,5.0,9.0,38,0.00,,,0.00,meteohub,2013-02-07 23:52:00,
2013-02-07 15:57:00,55.8,31.3,30.07,West,270,6.0,8.0,39,0.00,,,0.00,meteohub,2013-02-07 23:57:00,
2013-02-07 16:02:00,55.6,31.1,30.07,WNW,292,4.0,9.0,39,0.00,,,0.00,meteohub,2013-02-08 00:02:00,
2013-02-07 16:07:00,55.2,30.7,30.07,West,270,2.0,9.0,39,0.00,,,0.00,meteohub,2013-02-08 00:07:00,
2013-02-07 16:12:00,55.0,30.6,30.07,West,270,4.0,9.0,39,0.00,,,0.00,meteohub,2013-02-08 00:12:00,
2013-02-07 16:17:00,54.7,30.2,30.07,NW,315,6.0,9.0,39,0.00,,,0.00,meteohub,2013-02-08 00:17:00,
2013-02-07 16:22:00,54.5,30.7,30.07,WNW,292,5.0,8.0,40,0.00,,,0.00,meteohub,2013-02-08 00:22:00,
2013-02-07 16:27:00,54.1,30.4,30.07,WNW,292,7.0,10.0,40,0.00,,,0.00,meteohub,2013-02-08 00:27:00,
2013-02-07 16:33:00,54.0,30.2,30.07,NNW,338,1.0,10.0,40,0.00,,,0.00,meteohub,2013-02-08 00:33:00,
2013-02-07 16:38:00,53.8,31.3,30.07,NW,315,3.0,10.0,42,0.00,,,0.00,meteohub,2013-02-08 00:38:00,
2013-02-07 16:44:00,53.6,31.1,30.07,NNW,338,6.0,10.0,42,0.00,,,0.00,meteohub,2013-02-08 00:44:00,
2013-02-07 16:49:00,53.2,32.0,30.07,NW,315,3.0,7.0,44,0.00,,,0.00,meteohub,2013-02-08 00:49:00,
2013-02-07 16:55:00,53.1,32.4,30.07,West,270,3.0,7.0,45,0.00,,,0.00,meteohub,2013-02-08 00:55:00,
2013-02-07 17:00:00,52.9,32.2,30.07,SW,225,1.0,8.0,45,0.00,,,0.00,meteohub,2013-02-08 01:00:00,
2013-02-07 17:05:00,52.7,32.0,30.07,WNW,292,3.0,8.0,45,0.00,,,0.00,meteohub,2013-02-08 01:05:00,
2013-02-07 17:11:00,52.3,32.2,30.07,WSW,248,2.0,7.0,46,0.00,,,0.00,meteohub,2013-02-08 01:11:00,
2013-02-07 17:16:00,52.0,31.8,30.07,WNW,292,7.0,7.0,46,0.00,,,0.00,meteohub,2013-02-08 01:16:00,
2013-02-07 17:21:00,51.8,31.6,30.07,WNW,292,2.0,7.0,46,0.00,,,0.00,meteohub,2013-02-08 01:21:00,
2013-02-07 17:27:00,51.6,32.0,30.07,West,270,4.0,7.0,47,0.00,,,0.00,meteohub,2013-02-08 01:27:00,
2013-02-07 17:32:00,51.3,31.8,30.07,WNW,292,2.0,7.0,47,0.00,,,0.00,meteohub,2013-02-08 01:32:00,
2013-02-07 17:37:00,51.1,32.2,30.07,West,270,1.0,5.0,48,0.00,,,0.00,meteohub,2013-02-08 01:37:00,
2013-02-07 17:42:00,50.9,32.0,30.07,West,270,3.0,5.0,48,0.00,,,0.00,meteohub,2013-02-08 01:42:00,
2013-02-07 17:47:00,50.7,31.8,30.07,West,270,3.0,4.0,48,0.00,,,0.00,meteohub,2013-02-08 01:47:00,
2013-02-07 17:52:00,50.4,32.0,30.07,West,270,1.0,4.0,49,0.00,,,0.00,meteohub,2013-02-08 01:52:00,
2013-02-07 17:57:00,50.2,31.8,30.07,WSW,248,0.0,4.0,49,0.00,,,0.00,meteohub,2013-02-08 01:57:00,
2013-02-07 18:02:00,50.0,32.2,30.07,WSW,248,1.0,4.0,50,0.00,,,0.00,meteohub,2013-02-08 02:02:00,
2013-02-07 18:07:00,49.8,32.0,30.07,WSW,248,0.0,2.0,50,0.00,,,0.00,meteohub,2013-02-08 02:07:00,
2013-02-07 18:12:00,49.6,32.4,30.07,WSW,248,0.0,1.0,51,0.00,,,0.00,meteohub,2013-02-08 02:12:00,
2013-02-07 18:17:00,49.3,32.0,30.07,WSW,248,1.0,1.0,51,0.00,,,0.00,meteohub,2013-02-08 02:17:00,
2013-02-07 18:22:00,49.1,31.8,30.07,WSW,248,0.0,2.0,51,0.00,,,0.00,meteohub,2013-02-08 02:22:00,
2013-02-07 18:27:00,48.9,32.2,30.07,WSW,248,0.0,2.0,52,0.00,,,0.00,meteohub,2013-02-08 02:27:00,
2013-02-07 18:32:00,48.7,32.4,30.07,WSW,248,0.0,2.0,53,0.00,,,0.00,meteohub,2013-02-08 02:32:00,
2013-02-07 18:37:00,48.4,32.0,30.07,WSW,248,0.0,0.0,53,0.00,,,0.00,meteohub,2013-02-08 02:37:00,
2013-02-07 18:42:00,48.2,32.4,30.07,WSW,248,0.0,0.0,54,0.00,,,0.00,meteohub,2013-02-08 02:42:00,
2013-02-07 18:47:00,47.8,32.5,30.07,SW,225,0.0,0.0,55,0.00,,,0.00,meteohub,2013-02-08 02:47:00,
2013-02-07 18:52:00,47.5,32.2,30.07,SW,225,0.0,0.0,55,0.00,,,0.00,meteohub,2013-02-08 02:52:00,
2013-02-07 18:57:00,47.3,32.4,30.07,SW,225,0.0,0.0,56,0.00,,,0.00,meteohub,2013-02-08 02:57:00,
2013-02-07 19:02:00,46.9,32.2,30.04,SW,225,0.0,0.0,56,0.00,,,0.00,meteohub,2013-02-08 03:02:00,
2013-02-07 19:07:00,46.8,32.4,30.04,SSW,202,1.0,0.0,57,0.00,,,0.00,meteohub,2013-02-08 03:07:00,
2013-02-07 19:12:00,46.6,32.2,30.04,SSE,158,0.0,2.0,57,0.00,,,0.00,meteohub,2013-02-08 03:12:00,
2013-02-07 19:17:00,46.4,32.5,30.04,SSE,158,0.0,2.0,58,0.00,,,0.00,meteohub,2013-02-08 03:17:00,
2013-02-07 19:22:00,46.0,32.5,30.04,SSE,158,0.0,2.0,59,0.00,,,0.00,meteohub,2013-02-08 03:22:00,
2013-02-07 19:27:00,45.9,32.4,30.04,SSE,158,0.0,0.0,59,0.00,,,0.00,meteohub,2013-02-08 03:27:00,
2013-02-07 19:32:00,45.9,32.7,30.07,SSE,158,0.0,0.0,60,0.00,,,0.00,meteohub,2013-02-08 03:32:00,
2013-02-07 19:37:00,45.5,32.5,30.07,SSE,158,0.0,0.0,60,0.00,,,0.00,meteohub,2013-02-08 03:37:00,
2013-02-07 19:42:00,45.3,32.7,30.07,SSE,158,0.0,0.0,61,0.00,,,0.00,meteohub,2013-02-08 03:42:00,
2013-02-07 19:47:00,45.3,32.7,30.04,SSE,158,0.0,0.0,61,0.00,,,0.00,meteohub,2013-02-08 03:47:00,
2013-02-07 19:52:00,45.1,32.9,30.04,SSE,158,0.0,0.0,62,0.00,,,0.00,meteohub,2013-02-08 03:52:00,
2013-02-07 19:57:00,45.1,32.9,30.04,SSE,158,0.0,0.0,62,0.00,,,0.00,meteohub,2013-02-08 03:57:00,
2013-02-07 20:02:00,45.1,33.3,30.04,SSE,158,0.0,0.0,63,0.00,,,0.00,meteohub,2013-02-08 04:02:00,
2013-02-07 20:07:00,45.1,33.3,30.04,SSE,158,0.0,0.0,63,0.00,,,0.00,meteohub,2013-02-08 04:07:00,
2013-02-07 20:12:00,45.1,33.8,30.04,SSE,158,0.0,0.0,64,0.00,,,0.00,meteohub,2013-02-08 04:12:00,
2013-02-07 20:17:00,45.3,33.8,30.07,SSW,202,0.0,0.0,64,0.00,,,0.00,meteohub,2013-02-08 04:17:00,
2013-02-07 20:22:00,45.3,34.3,30.07,NNW,338,1.0,1.0,65,0.00,,,0.00,meteohub,2013-02-08 04:22:00,
2013-02-07 20:27:00,45.5,34.9,30.07,WSW,248,0.0,1.0,66,0.00,,,0.00,meteohub,2013-02-08 04:27:00,
2013-02-07 20:32:00,45.5,35.6,30.04,WSW,248,0.0,1.0,68,0.00,,,0.00,meteohub,2013-02-08 04:32:00,
2013-02-07 20:37:00,45.5,36.0,30.04,WSW,248,0.0,1.0,69,0.00,,,0.00,meteohub,2013-02-08 04:37:00,
2013-02-07 20:42:00,45.5,36.7,30.04,NNW,338,1.0,1.0,71,0.00,,,0.00,meteohub,2013-02-08 04:42:00,
2013-02-07 20:47:00,45.7,36.9,30.07,NNW,338,0.0,2.0,71,0.00,,,0.00,meteohub,2013-02-08 04:47:00,
2013-02-07 20:52:00,45.7,37.2,30.07,NW,315,0.0,2.0,72,0.00,,,0.00,meteohub,2013-02-08 04:52:00,
2013-02-07 20:57:00,45.9,37.4,30.07,NW,315,1.0,2.0,72,0.00,,,0.00,meteohub,2013-02-08 04:57:00,
2013-02-07 21:00:00,45.9,37.8,30.07,WNW,292,0.0,2.0,73,0.00,,,0.00,meteohub,2013-02-08 05:00:00,
2013-02-07 21:01:00,45.9,37.8,30.07,WNW,292,0.0,2.0,73,0.00,,,0.00,meteohub,2013-02-08 05:01:00,
2013-02-07 21:02:00,45.9,37.8,30.07,WNW,292,0.0,2.0,73,0.00,,,0.00,meteohub,2013-02-08 05:02:00,
2013-02-07 21:07:00,45.9,38.1,30.07,NNW,338,0.0,2.0,74,0.00,,,0.00,meteohub,2013-02-08 05:07:00,
2013-02-07 21:13:00,45.9,38.1,30.07,NNW,338,0.0,1.0,74,0.00,,,0.00,meteohub,2013-02-08 05:13:00,
2013-02-07 21:18:00,45.9,38.1,30.07,NNW,338,0.0,1.0,74,0.00,,,0.00,meteohub,2013-02-08 05:18:00,
2013-02-07 21:24:00,45.9,38.1,30.07,NW,315,0.0,0.0,74,0.00,,,0.00,meteohub,2013-02-08 05:24:00,
2013-02-07 21:29:00,45.9,38.5,30.04,NW,315,0.0,0.0,75,0.00,,,0.00,meteohub,2013-02-08 05:29:00,
2013-02-07 21:34:00,46.0,38.7,30.04,NW,315,0.0,0.0,75,0.00,,,0.00,meteohub,2013-02-08 05:34:00,
2013-02-07 21:40:00,46.0,38.8,30.04,NW,315,0.0,0.0,76,0.00,,,0.00,meteohub,2013-02-08 05:40:00,
2013-02-07 21:45:00,46.0,38.8,30.04,NNW,338,3.0,3.0,76,0.04,,,0.04,meteohub,2013-02-08 05:45:00,
2013-02-07 21:51:00,46.0,38.8,30.04,NW,315,4.0,4.0,76,0.04,,,0.04,meteohub,2013-02-08 05:51:00,
2013-02-07 21:56:00,45.9,38.7,30.04,NW,315,2.0,6.0,76,0.04,,,0.04,meteohub,2013-02-08 05:56:00,
2013-02-07 22:01:00,45.7,38.5,30.04,WNW,292,1.0,6.0,76,0.04,,,0.04,meteohub,2013-02-08 06:01:00,
2013-02-07 22:07:00,45.5,38.1,30.04,WNW,292,0.0,6.0,75,0.04,,,0.04,meteohub,2013-02-08 06:07:00,
2013-02-07 22:12:00,45.5,38.5,30.04,West,270,0.0,4.0,76,0.04,,,0.04,meteohub,2013-02-08 06:12:00,
2013-02-07 22:17:00,45.5,38.5,30.04,SW,225,0.0,4.0,76,0.04,,,0.04,meteohub,2013-02-08 06:17:00,
2013-02-07 22:22:00,45.5,38.7,30.04,SSE,158,2.0,2.0,77,0.04,,,0.04,meteohub,2013-02-08 06:22:00,
2013-02-07 22:27:00,45.5,38.7,30.04,SSE,158,1.0,2.0,77,0.04,,,0.04,meteohub,2013-02-08 06:27:00,
2013-02-07 22:32:00,45.3,38.5,30.04,SSE,158,0.0,3.0,77,0.04,,,0.04,meteohub,2013-02-08 06:32:00,
2013-02-07 22:38:00,45.1,38.3,30.04,SSE,158,0.0,3.0,77,0.04,,,0.04,meteohub,2013-02-08 06:38:00,
2013-02-07 22:43:00,45.0,38.1,30.04,SSE,158,0.0,1.0,77,0.00,,,0.04,meteohub,2013-02-08 06:43:00,
2013-02-07 22:48:00,44.8,37.9,30.04,SSW,202,0.0,1.0,77,0.00,,,0.04,meteohub,2013-02-08 06:48:00,
2013-02-07 22:54:00,44.6,37.9,30.04,SSW,202,0.0,1.0,77,0.00,,,0.04,meteohub,2013-02-08 06:54:00,
2013-02-07 22:59:00,44.2,37.8,30.04,SSW,202,0.0,1.0,78,0.00,,,0.04,meteohub,2013-02-08 06:59:00,
2013-02-07 23:05:00,44.1,37.6,30.04,SSW,202,0.0,1.0,78,0.00,,,0.04,meteohub,2013-02-08 07:05:00,
2013-02-07 23:10:00,43.9,37.4,30.04,SSW,202,0.0,0.0,78,0.00,,,0.04,meteohub,2013-02-08 07:10:00,
2013-02-07 23:16:00,43.7,37.2,30.04,SSW,202,0.0,0.0,78,0.00,,,0.04,meteohub,2013-02-08 07:16:00,
2013-02-07 23:21:00,43.3,37.0,30.04,SSW,202,0.0,0.0,78,0.00,,,0.04,meteohub,2013-02-08 07:21:00,
2013-02-07 23:26:00,43.2,36.9,30.04,SSW,202,0.0,0.0,78,0.00,,,0.04,meteohub,2013-02-08 07:26:00,
2013-02-07 23:32:00,43.0,36.7,30.01,SW,225,0.0,0.0,78,0.00,,,0.04,meteohub,2013-02-08 07:32:00,
2013-02-07 23:37:00,42.8,36.5,30.01,SW,225,0.0,0.0,78,0.00,,,0.04,meteohub,2013-02-08 07:37:00,
2013-02-07 23:42:00,42.6,36.5,30.01,SW,225,0.0,0.0,79,0.00,,,0.04,meteohub,2013-02-08 07:42:00,
2013-02-07 23:47:00,42.4,36.7,30.01,SW,225,0.0,0.0,80,0.00,,,0.04,meteohub,2013-02-08 07:47:00,
2013-02-07 23:52:00,42.3,36.5,30.01,SW,225,0.0,0.0,80,0.00,,,0.04,meteohub,2013-02-08 07:52:00,
2013-02-07 23:57:00,42.1,36.3,30.01,SW,225,0.0,0.0,80,0.00,,,0.04,meteohub,2013-02-08 07:57:00,